P120 Amazonas — PWAZ — position and weather

sailwx.info

Track history (hours):
 
Tides and Currents Weather Stations Pressure Air Temp Water Temp Dewpoint Dewpoint Depression Visibility Wind Speed Wind Dir Waves Ship Positions

P120 Amazonas

Last reported at 2016-Aug-25 12:33 UTC. Time now 2016-Aug-28 19:00 UTC.
Position S 22°52' W 043°08'.

Length 91 m; draft 4.5 m.

Type: Military. MMSI: 710493000.

Date/timePositionNaut miles runAvg speedWind from/ knotsBaromVisibWave heightAir tempDewpointWater temp
2016-Aug-25 12:33S 22°52' W 043°08'7 7.1
2016-Aug-25 11:33S 22°59' W 043°09'4 3.7
2016-Aug-25 10:29S 23°01' W 043°12'3 0.3
2016-Aug-25 01:33S 22°60' W 043°10'6 6.1
2016-Aug-25 00:33S 22°54' W 043°09'1312.8
2016-Aug-24 23:33S 23°06' W 043°04'6 0.7
2016-Aug-24 14:29S 23°09' W 042°58'1212.8
2016-Aug-24 13:33S 22°60' W 043°06'8 8.5
2016-Aug-24 12:33S 22°52' W 043°09'  
2016-Aug-19 22:33S 22°52' W 043°08'1 1.4
2016-Aug-19 21:33S 22°53' W 043°09'5 0.3
2016-Aug-19 02:18S 22°58' W 043°10'0 0.0
2016-Aug-19 01:29S 22°58' W 043°10'0 0.0
2016-Aug-19 00:29S 22°58' W 043°10'0 0.0
2016-Aug-18 20:34S 22°59' W 043°10'5 4.3
2016-Aug-18 19:30S 22°58' W 043°05'0 0.0
2016-Aug-18 18:31S 22°58' W 043°05'0 0.0
2016-Aug-18 17:22S 22°58' W 043°05'0 0.0
2016-Aug-18 16:32S 22°58' W 043°05'2 2.3
2016-Aug-18 15:34S 22°59' W 043°07'2 1.7
2016-Aug-18 14:34S 22°58' W 043°06'3 2.9
2016-Aug-18 13:33S 23°00' W 043°08'5 0.5
2016-Aug-18 04:19S 23°05' W 043°06'7 1.4
2016-Aug-17 23:10S 22°59' W 043°10'1 1.3
2016-Aug-17 22:32S 22°59' W 043°09'4 3.5
2016-Aug-17 21:32S 22°58' W 043°05'0 0.0
2016-Aug-17 20:32S 22°58' W 043°05'0 0.0
2016-Aug-17 19:28S 22°58' W 043°05'0 0.0
2016-Aug-17 18:32S 22°58' W 043°05'0 0.0
2016-Aug-17 17:29S 22°58' W 043°05'0 0.0
2016-Aug-17 16:32S 22°58' W 043°05'0 0.0
2016-Aug-17 15:29S 22°58' W 043°05'2 1.7
2016-Aug-17 14:33S 22°59' W 043°07'3 2.9
2016-Aug-17 13:32S 22°59' W 043°10'2 2.1
2016-Aug-17 12:33S 23°00' W 043°08'4 3.9
2016-Aug-17 11:33S 22°56' W 043°08'4 0.1
2016-Aug-15 22:33S 22°52' W 043°09'4 3.6
2016-Aug-15 21:33S 22°55' W 043°08'8 7.8
2016-Aug-15 20:33S 23°02' W 043°04'9 8.6
2016-Aug-15 19:33S 23°04' W 042°55'  
Track history (hours):
 
Tides and Currents Weather Stations Pressure Air Temp Water Temp Dewpoint Dewpoint Depression Visibility Wind Speed Wind Dir Waves Ship Positions

P120 Amazonas

Last reported at 2016-Aug-25 12:33 UTC. Time now 2016-Aug-28 19:00 UTC.
Position S 22°52' W 043°08'.

Length 91 m; draft 4.5 m.

Type: Military. MMSI: 710493000.

Date/timePositionNaut miles runAvg speedWind from/ knotsBaromVisibWave heightAir tempDewpointWater temp
2016-Aug-25 12:33S 22°52' W 043°08'7 7.1
2016-Aug-25 11:33S 22°59' W 043°09'4 3.7
2016-Aug-25 10:29S 23°01' W 043°12'3 0.3
2016-Aug-25 01:33S 22°60' W 043°10'6 6.1
2016-Aug-25 00:33S 22°54' W 043°09'1312.8
2016-Aug-24 23:33S 23°06' W 043°04'6 0.7
2016-Aug-24 14:29S 23°09' W 042°58'1212.8
2016-Aug-24 13:33S 22°60' W 043°06'8 8.5
2016-Aug-24 12:33S 22°52' W 043°09'  
2016-Aug-19 22:33S 22°52' W 043°08'1 1.4
2016-Aug-19 21:33S 22°53' W 043°09'5 0.3
2016-Aug-19 02:18S 22°58' W 043°10'0 0.0
2016-Aug-19 01:29S 22°58' W 043°10'0 0.0
2016-Aug-19 00:29S 22°58' W 043°10'0 0.0
2016-Aug-18 20:34S 22°59' W 043°10'5 4.3
2016-Aug-18 19:30S 22°58' W 043°05'0 0.0
2016-Aug-18 18:31S 22°58' W 043°05'0 0.0
2016-Aug-18 17:22S 22°58' W 043°05'0 0.0
2016-Aug-18 16:32S 22°58' W 043°05'2 2.3
2016-Aug-18 15:34S 22°59' W 043°07'2 1.7
2016-Aug-18 14:34S 22°58' W 043°06'3 2.9
2016-Aug-18 13:33S 23°00' W 043°08'5 0.5
2016-Aug-18 04:19S 23°05' W 043°06'7 1.4
2016-Aug-17 23:10S 22°59' W 043°10'1 1.3
2016-Aug-17 22:32S 22°59' W 043°09'4 3.5
2016-Aug-17 21:32S 22°58' W 043°05'0 0.0
2016-Aug-17 20:32S 22°58' W 043°05'0 0.0
2016-Aug-17 19:28S 22°58' W 043°05'0 0.0
2016-Aug-17 18:32S 22°58' W 043°05'0 0.0
2016-Aug-17 17:29S 22°58' W 043°05'0 0.0
2016-Aug-17 16:32S 22°58' W 043°05'0 0.0
2016-Aug-17 15:29S 22°58' W 043°05'2 1.7
2016-Aug-17 14:33S 22°59' W 043°07'3 2.9
2016-Aug-17 13:32S 22°59' W 043°10'2 2.1
2016-Aug-17 12:33S 23°00' W 043°08'4 3.9
2016-Aug-17 11:33S 22°56' W 043°08'4 0.1
2016-Aug-15 22:33S 22°52' W 043°09'4 3.6
2016-Aug-15 21:33S 22°55' W 043°08'8 7.8
2016-Aug-15 20:33S 23°02' W 043°04'9 8.6
2016-Aug-15 19:33S 23°04' W 042°55'  

Dump ship's entire track history